Chesterland, Ohio
Current Conditions -  °F | °C
As of 10:45 AM on Tuesday 21 Oct 2014 (Local Time) from KCGF Reporting Station
Rain Showers Rain Showers  
Wind Chill: 52°   Ceiling: 800
Heat Index: 52°   Visibility: 4mi
Dew Point: 50°   Wind: 16mph
Humidity: 94%   Direction: 320°NW
Pressure: 29.92"   Gusts: NA
Location:  41.52°N, 81.34°W
Report Text: KCGF 211445Z 32014KT 4SM -SHRA BR OVC008 11/10 A2992
Loading
Personal Weather Stations






























Interactive Weather Map
Tropical Storm Tracking
New forecast layout! Learn more

10-Day Weather Forecast

Advertisements
Track Severe Weather on mobile